Time;durP1;ratioP1;P1;durP2;ratioP2;P2;SDS_P1;SDS_P2;PMS_P1;PMS_P2;Temp;Humidity;BMP_temperature;BMP_pressure;BME280_temperature;BME280_humidity;BME280_pressure;Samples;Min_cycle;Max_cycle;Signal;HPM_P1;HPM_P2
2023/03/31 00:00:59;;;;;;;58.17;13.70;;;12.90;99.90;;;12.15;100.00;99958.69;4219972;28;20032;-79
2023/03/31 00:03:01;;;;;;;69.25;14.35;;;12.90;99.90;;;12.26;100.00;99977.69;4201892;28;20048;-79
2023/03/31 00:05:02;;;;;;;63.15;12.55;;;12.80;99.90;;;12.21;100.00;99973.78;4220099;28;20088;-80
2023/03/31 00:07:04;;;;;;;55.38;11.90;;;12.80;99.90;;;12.16;100.00;99959.47;4220178;28;20060;-79
2023/03/31 00:09:11;;;;;;;63.00;14.40;;;12.80;99.90;;;12.28;100.00;99978.31;4207735;28;20105;-80
2023/03/31 00:11:12;;;;;;;59.38;12.23;;;12.90;99.90;;;12.17;100.00;99969.88;4219874;28;20059;-79
2023/03/31 00:13:14;;;;;;;65.90;11.82;;;12.90;99.90;;;12.17;100.00;99963.75;4216881;28;20091;-78
2023/03/31 00:15:15;;;;;;;58.25;12.65;;;12.80;99.90;;;12.15;100.00;99961.31;4201846;28;20469;-80
2023/03/31 00:17:16;;;;;;;60.70;11.40;;;12.80;99.90;;;12.09;100.00;99964.69;4219591;28;20020;-79
2023/03/31 00:19:17;;;;;;;63.58;12.45;;;12.80;99.90;;;12.07;100.00;99956.13;4201617;28;20033;-79
2023/03/31 00:21:32;;;;;;;77.82;15.32;;;12.80;99.90;;;12.09;100.00;99943.56;4230411;28;20056;-79
2023/03/31 00:23:33;;;;;;;59.17;12.18;;;12.80;99.90;;;12.12;100.00;99966.16;4196113;28;20025;-80
2023/03/31 00:25:34;;;;;;;63.20;12.85;;;12.80;99.90;;;12.01;100.00;99938.34;4219725;28;20037;-80
2023/03/31 00:27:35;;;;;;;59.53;12.80;;;12.80;99.90;;;12.12;100.00;99951.13;4201597;28;20025;-79
2023/03/31 00:29:40;;;;;;;70.53;16.25;;;12.80;99.90;;;12.27;100.00;99942.31;4201613;28;20033;-79
2023/03/31 00:31:41;;;;;;;59.45;14.32;;;12.80;99.90;;;12.25;100.00;99947.78;4202018;28;20028;-79
2023/03/31 00:33:42;;;;;;;64.90;12.98;;;12.80;99.90;;;12.10;100.00;99937.25;4219693;28;20043;-79
2023/03/31 00:35:44;;;;;;;71.03;15.00;;;12.80;99.90;;;12.16;100.00;99944.44;4201575;28;20107;-79
2023/03/31 00:37:46;;;;;;;68.32;13.05;;;12.80;99.90;;;12.21;100.00;99928.81;4219423;28;20028;-80
2023/03/31 00:39:46;;;;;;;64.82;14.73;;;12.80;99.90;;;12.03;100.00;99914.38;4219447;28;20059;-79
2023/03/31 00:41:48;;;;;;;66.28;12.63;;;12.80;99.90;;;12.05;100.00;99930.88;4217080;28;20016;-79
2023/03/31 00:44:11;;;;;;;65.90;14.63;;;12.70;99.90;;;12.01;100.00;99932.25;4201070;28;20119;-79
2023/03/31 00:46:17;;;;;;;56.88;12.10;;;12.70;99.90;;;12.05;100.00;99915.00;4225768;28;20034;-80
2023/03/31 00:48:19;;;;;;;66.78;11.75;;;12.70;99.90;;;12.19;100.00;99928.19;4215706;28;20028;-80
2023/03/31 00:50:28;;;;;;;70.35;12.40;;;12.70;99.90;;;12.08;100.00;99926.03;4219253;28;20094;-80
2023/03/31 00:52:36;;;;;;;71.00;13.88;;;12.70;99.90;;;11.94;100.00;99913.69;4201798;28;20032;-80
2023/03/31 00:54:39;;;;;;;47.78;10.77;;;12.70;99.90;;;11.99;100.00;99913.94;4219229;28;20035;-80
2023/03/31 00:56:46;;;;;;;61.60;11.15;;;12.60;99.90;;;12.03;100.00;99915.22;4201238;28;20033;-80
2023/03/31 00:58:48;;;;;;;69.53;12.93;;;12.60;99.90;;;12.04;100.00;99908.06;4228501;28;20020;-80
2023/03/31 01:00:51;;;;;;;54.70;11.55;;;12.70;99.90;;;11.93;100.00;99905.91;4193836;28;20032;-80
2023/03/31 01:03:00;;;;;;;63.47;12.82;;;12.60;99.90;;;11.98;100.00;99912.28;4201209;28;20052;-80
2023/03/31 01:05:01;;;;;;;63.03;14.73;;;12.60;99.90;;;12.06;100.00;99916.66;4229532;28;20079;-80
2023/03/31 01:07:22;;;;;;;55.38;12.15;;;12.60;99.90;;;12.14;100.00;99913.91;4192620;28;20021;-80
2023/03/31 01:09:24;;;;;;;48.90;10.27;;;12.70;99.90;;;12.17;100.00;99898.50;4218976;28;20054;-80
2023/03/31 01:11:29;;;;;;;64.65;14.10;;;12.80;99.90;;;12.08;100.00;99899.59;4184365;28;20039;-80
2023/03/31 01:13:30;;;;;;;65.30;12.38;;;12.80;99.90;;;12.18;100.00;99908.03;4219005;28;20041;-80
2023/03/31 01:15:31;;;;;;;59.85;12.85;;;12.80;99.90;;;12.09;100.00;99885.41;4219212;28;20471;-79
2023/03/31 01:17:33;;;;;;;59.15;10.80;;;12.70;99.90;;;12.08;100.00;99894.31;4218673;28;20111;-80
2023/03/31 01:20:23;;;;;;;60.58;13.23;;;12.70;99.90;;;12.02;100.00;99881.03;4201039;28;20033;-80
2023/03/31 01:23:15;;;;;;;66.68;13.10;;;12.80;99.90;;;12.04;100.00;99900.97;4218680;28;20024;-79
2023/03/31 01:26:02;;;;;;;62.25;12.40;;;12.70;99.90;;;12.11;100.00;99896.59;4218710;28;20059;-81
2023/03/31 01:28:51;;;;;;;64.55;12.05;;;12.70;99.90;;;12.11;100.00;99880.72;4218797;28;20023;-81
2023/03/31 01:31:39;;;;;;;57.17;12.18;;;12.70;99.90;;;12.04;100.00;99900.97;4201192;28;20047;-80
2023/03/31 01:34:37;;;;;;;66.95;11.95;;;12.70;99.90;;;11.93;100.00;99890.06;4218623;28;20153;-80
2023/03/31 01:37:22;;;;;;;54.00;12.23;;;12.60;99.90;;;12.01;100.00;99895.22;4161580;28;20045;-80
2023/03/31 01:39:45;;;;;;;65.43;12.73;;;12.60;99.90;;;11.95;100.00;99880.94;4203096;28;20101;-80
2023/03/31 01:42:04;;;;;;;66.65;12.32;;;12.60;99.90;;;12.05;100.00;99881.47;4200658;28;20062;-80
2023/03/31 01:44:32;;;;;;;71.72;15.48;;;12.60;99.90;;;11.86;100.00;99882.03;4218461;28;20042;-79
2023/03/31 01:46:59;;;;;;;55.45;12.98;;;12.60;99.90;;;11.97;100.00;99863.09;4218574;28;20081;-80
2023/03/31 01:49:28;;;;;;;41.40;9.48;;;12.60;99.90;;;11.88;100.00;99872.13;4218113;28;20452;-80
2023/03/31 01:52:04;;;;;;;65.28;14.90;;;12.60;99.90;;;11.86;100.00;99871.47;4218440;28;20027;-80
2023/03/31 01:54:38;;;;;;;61.35;11.82;;;12.50;99.90;;;11.79;100.00;99872.41;4201869;28;20055;-80
2023/03/31 01:56:50;;;;;;;57.90;12.38;;;12.40;99.90;;;11.49;100.00;99858.41;4217817;28;20024;-80
2023/03/31 01:59:13;;;;;;;50.50;10.90;;;12.30;99.90;;;11.49;100.00;99858.41;4201399;28;20030;-79
2023/03/31 02:01:30;;;;;;;67.78;12.02;;;12.20;99.90;;;11.43;100.00;99845.91;4219365;28;20043;-80
2023/03/31 02:03:39;;;;;;;58.47;11.32;;;12.10;99.90;;;11.35;100.00;99844.19;4216642;28;20414;-79
2023/03/31 02:05:51;;;;;;;60.17;11.93;;;12.10;99.90;;;11.34;100.00;99852.31;4177454;28;20025;-80
2023/03/31 02:08:02;;;;;;;65.30;12.65;;;12.00;99.90;;;11.38;100.00;99848.31;4198952;28;20111;-79
2023/03/31 02:10:08;;;;;;;60.03;12.25;;;12.00;99.90;;;11.17;100.00;99840.28;4178042;28;20075;-81
2023/03/31 02:12:10;;;;;;;65.65;12.65;;;11.90;99.90;;;11.16;100.00;99857.94;4177197;28;20063;-80
2023/03/31 02:14:20;;;;;;;57.97;11.73;;;11.80;99.90;;;11.25;100.00;99856.03;4184641;28;20033;-80
2023/03/31 02:16:26;;;;;;;58.47;10.10;;;11.90;99.90;;;11.33;100.00;99826.88;4185107;28;20036;-80
2023/03/31 02:18:32;;;;;;;51.13;11.43;;;11.90;99.90;;;11.35;100.00;99824.91;4175296;28;20030;-80
2023/03/31 02:20:33;;;;;;;49.65;10.05;;;11.90;99.90;;;11.25;100.00;99833.09;4167544;28;20120;-81
2023/03/31 02:22:38;;;;;;;43.45;11.80;;;11.90;99.90;;;11.31;100.00;99818.34;4174918;28;20423;-80
2023/03/31 02:24:41;;;;;;;48.88;11.45;;;12.00;99.90;;;11.38;100.00;99824.53;4167321;28;20088;-80
2023/03/31 02:27:03;;;;;;;61.92;10.88;;;12.00;99.90;;;11.26;100.00;99823.34;4167270;28;20034;-79
2023/03/31 02:29:04;;;;;;;54.92;11.77;;;12.00;99.90;;;11.20;100.00;99813.53;4168143;28;20531;-80
2023/03/31 02:31:21;;;;;;;58.35;11.23;;;11.90;99.90;;;11.35;100.00;99828.34;4167340;28;20504;-80
2023/03/31 02:33:22;;;;;;;51.05;11.40;;;11.90;99.90;;;11.51;100.00;99811.47;4167223;28;20089;-80
2023/03/31 02:35:24;;;;;;;51.55;12.00;;;12.00;99.90;;;11.51;100.00;99801.75;4168293;28;20041;-80
2023/03/31 02:37:26;;;;;;;58.50;10.43;;;12.10;99.90;;;11.59;100.00;99800.81;4167201;28;20116;-80
2023/03/31 02:39:33;;;;;;;65.72;10.15;;;12.20;99.90;;;11.76;100.00;99793.53;4167213;28;20067;-80
2023/03/31 02:41:35;;;;;;;62.17;11.70;;;12.30;99.90;;;11.71;100.00;99796.72;4167132;28;20028;-79
2023/03/31 02:43:36;;;;;;;48.63;9.80;;;12.30;99.90;;;11.62;100.00;99779.31;4166820;28;20105;-79
2023/03/31 02:45:48;;;;;;;40.80;7.93;;;12.30;99.90;;;11.62;100.00;99813.63;4179154;28;20021;-80
2023/03/31 02:47:49;;;;;;;41.50;9.50;;;12.30;99.90;;;11.53;100.00;99810.28;4184362;28;20369;-80
2023/03/31 02:49:59;;;;;;;46.80;9.63;;;12.30;99.90;;;11.36;100.00;99810.69;4171360;28;20094;-80
2023/03/31 02:52:30;;;;;;;48.65;9.48;;;12.20;99.90;;;11.27;100.00;99832.91;4170113;28;20033;-81
2023/03/31 02:55:17;;;;;;;27.60;6.43;;;12.00;99.90;;;11.16;100.00;99830.72;4187805;28;20440;-81
2023/03/31 02:57:55;;;;;;;28.85;6.95;;;11.90;99.90;;;11.03;100.00;99816.34;4186401;28;20508;-80
2023/03/31 03:00:23;;;;;;;42.97;9.65;;;11.80;99.90;;;11.15;100.00;99818.50;4185883;28;20041;-80
2023/03/31 03:02:56;;;;;;;51.55;8.88;;;11.70;99.90;;;11.07;100.00;99796.50;4188882;28;20439;-80
2023/03/31 03:05:25;;;;;;;40.33;8.80;;;11.70;99.90;;;11.15;100.00;99810.59;4182817;28;20025;-80
2023/03/31 03:07:46;;;;;;;44.60;10.27;;;11.80;99.90;;;11.17;100.00;99798.84;4184122;28;20028;-79
2023/03/31 03:10:11;;;;;;;48.58;10.93;;;11.80;99.90;;;11.25;100.00;99808.50;4171185;28;20041;-80
2023/03/31 03:12:44;;;;;;;41.28;10.35;;;11.90;99.90;;;11.30;100.00;99798.22;4163858;28;20037;-79
2023/03/31 03:15:05;;;;;;;56.95;9.10;;;11.90;99.90;;;11.27;100.00;99798.56;4170096;28;20021;-80
2023/03/31 03:17:36;;;;;;;41.63;9.38;;;11.90;99.90;;;11.37;100.00;99799.94;4165546;28;20030;-80
2023/03/31 03:19:37;;;;;;;46.65;8.95;;;12.00;99.90;;;11.46;100.00;99803.31;4186502;28;20040;-80
2023/03/31 03:21:38;;;;;;;49.22;11.57;;;12.10;99.90;;;11.38;100.00;99788.38;4178436;28;20025;-80
2023/03/31 03:23:38;;;;;;;43.47;9.27;;;12.00;99.90;;;11.42;100.00;99783.53;4177734;28;20484;-80
2023/03/31 03:25:40;;;;;;;55.47;9.77;;;12.00;99.90;;;11.47;100.00;99778.50;4171914;28;20393;-79
2023/03/31 03:27:40;;;;;;;64.43;12.40;;;12.10;99.90;;;11.49;100.00;99779.16;4175335;28;20051;-81
2023/03/31 03:29:42;;;;;;;50.38;9.15;;;12.10;99.90;;;11.49;100.00;99797.66;4187283;28;20025;-80
2023/03/31 03:31:42;;;;;;;47.83;10.77;;;12.10;99.90;;;11.42;100.00;99796.75;4187599;28;20031;-81
2023/03/31 03:33:43;;;;;;;52.67;10.68;;;12.10;99.90;;;11.34;100.00;99781.00;4187180;28;20061;-79
2023/03/31 03:35:44;;;;;;;49.17;10.68;;;12.00;99.90;;;11.32;100.00;99796.22;4181953;28;20049;-79
2023/03/31 03:37:45;;;;;;;47.40;11.13;;;12.00;99.90;;;11.42;100.00;99787.00;4178056;28;20048;-80
2023/03/31 03:39:46;;;;;;;42.95;9.45;;;12.00;99.90;;;11.36;100.00;99790.38;4175624;28;20030;-80
2023/03/31 03:41:47;;;;;;;43.35;8.93;;;12.10;99.90;;;11.47;100.00;99792.53;4184271;28;20059;-80
2023/03/31 03:43:48;;;;;;;44.72;9.63;;;12.00;99.90;;;11.60;100.00;99776.84;4185629;28;20467;-80
2023/03/31 03:45:49;;;;;;;50.42;10.70;;;12.10;99.90;;;11.52;100.00;99776.16;4181347;28;20471;-79
2023/03/31 03:47:50;;;;;;;43.53;8.35;;;12.20;99.90;;;11.82;100.00;99790.13;4181165;28;20036;-79
2023/03/31 03:49:51;;;;;;;45.67;9.43;;;12.30;99.90;;;11.80;100.00;99776.31;4186910;28;20478;-80
2023/03/31 03:51:52;;;;;;;48.38;8.73;;;12.40;99.90;;;11.76;100.00;99804.91;4187115;28;20029;-80
2023/03/31 03:53:53;;;;;;;39.03;7.50;;;12.40;99.90;;;11.73;100.00;99797.38;4186938;28;20045;-80
2023/03/31 03:55:54;;;;;;;42.42;8.55;;;12.40;99.90;;;11.85;100.00;99801.16;4175325;28;20404;-80
2023/03/31 03:57:54;;;;;;;40.03;7.32;;;12.50;99.90;;;11.86;100.00;99821.28;4182367;28;20021;-80
2023/03/31 03:59:55;;;;;;;47.05;8.13;;;12.50;99.90;;;11.78;100.00;99794.16;4190793;28;20029;-80
2023/03/31 04:01:56;;;;;;;35.55;7.70;;;12.50;99.90;;;11.85;100.00;99793.22;4174443;28;20480;-79
2023/03/31 04:03:57;;;;;;;41.63;7.85;;;12.50;99.90;;;11.78;100.00;99802.91;4177889;28;20021;-79
2023/03/31 04:05:58;;;;;;;43.92;8.38;;;12.50;99.90;;;11.77;100.00;99803.09;4170193;28;20029;-80
2023/03/31 04:07:59;;;;;;;43.50;9.75;;;12.40;99.90;;;11.78;100.00;99776.47;4191990;28;20056;-79
2023/03/31 04:10:00;;;;;;;46.40;8.95;;;12.40;99.90;;;11.73;100.00;99788.63;4220220;28;20078;-79
2023/03/31 04:12:01;;;;;;;39.08;7.43;;;12.50;99.90;;;11.72;100.00;99779.03;4201915;28;20450;-80
2023/03/31 04:14:01;;;;;;;46.70;10.40;;;12.40;99.90;;;11.72;100.00;99790.44;4201604;28;20112;-79
2023/03/31 04:16:02;;;;;;;43.83;9.13;;;12.40;99.90;;;11.64;100.00;99782.59;4219749;28;20107;-80
2023/03/31 04:18:03;;;;;;;47.40;11.45;;;12.40;99.90;;;11.65;100.00;99781.56;4219816;28;20028;-80
2023/03/31 04:20:08;;;;;;;47.80;10.50;;;12.40;99.90;;;11.64;100.00;99780.78;4202015;28;20024;-81
2023/03/31 04:22:10;;;;;;;44.40;9.68;;;12.30;99.90;;;11.64;100.00;99786.06;4223096;28;20024;-81
2023/03/31 04:24:20;;;;;;;52.15;9.50;;;12.30;99.90;;;11.52;100.00;99773.50;4218927;28;20031;-81
2023/03/31 04:26:29;;;;;;;52.15;9.02;;;12.30;99.90;;;11.58;100.00;99784.16;4202817;28;20029;-81
2023/03/31 04:28:33;;;;;;;44.90;9.13;;;12.20;99.90;;;11.51;100.00;99783.25;4219557;28;20407;-80
2023/03/31 04:30:38;;;;;;;46.20;7.57;;;12.20;99.90;;;11.56;100.00;99793.25;4219448;28;20028;-80
2023/03/31 04:32:39;;;;;;;36.28;9.82;;;12.20;99.90;;;11.67;100.00;99790.16;4219342;28;20028;-80
2023/03/31 04:34:45;;;;;;;30.15;7.18;;;12.30;99.90;;;11.75;100.00;99781.31;4201641;28;20029;-79
2023/03/31 04:36:47;;;;;;;35.55;8.48;;;12.30;99.90;;;11.70;100.00;99788.97;4221738;28;20023;-80
2023/03/31 04:38:53;;;;;;;40.85;7.28;;;12.30;99.90;;;11.55;100.00;99802.19;4219039;28;20059;-80
2023/03/31 04:40:55;;;;;;;41.30;7.28;;;12.30;99.90;;;11.60;100.00;99807.72;4202061;28;20025;-80
2023/03/31 04:42:56;;;;;;;45.60;7.80;;;12.30;99.90;;;11.58;100.00;99784.16;4219399;28;20027;-80
2023/03/31 04:44:57;;;;;;;44.97;7.80;;;12.30;99.90;;;11.72;100.00;99790.44;4201150;28;20027;-79
2023/03/31 04:47:01;;;;;;;38.90;9.48;;;12.30;99.90;;;11.54;100.00;99777.59;4219490;28;20024;-81
2023/03/31 04:49:04;;;;;;;36.88;8.02;;;12.30;99.90;;;11.54;100.00;99771.50;4201334;28;20017;-80
2023/03/31 04:51:06;;;;;;;35.92;7.18;;;12.20;99.90;;;11.57;100.00;99805.47;4219296;28;20028;-80
2023/03/31 04:53:07;;;;;;;30.90;7.80;;;12.20;99.90;;;11.64;100.00;99793.16;4201303;28;20521;-80
2023/03/31 04:55:08;;;;;;;34.60;7.18;;;12.20;99.90;;;11.55;100.00;99812.75;4230798;28;20451;-80
2023/03/31 04:57:10;;;;;;;35.30;8.52;;;12.20;99.90;;;11.56;100.00;99812.56;4210064;28;20441;-80
2023/03/31 04:59:11;;;;;;;25.88;6.38;;;12.20;99.90;;;11.51;100.00;99796.47;4201207;28;20028;-79
2023/03/31 05:01:17;;;;;;;36.83;6.70;;;12.20;99.90;;;11.48;100.00;99801.28;4219023;28;20085;-80
2023/03/31 05:03:18;;;;;;;34.00;8.25;;;12.20;99.90;;;11.51;100.00;99793.00;4210413;28;20031;-80
2023/03/31 05:05:20;;;;;;;41.80;6.70;;;12.20;99.90;;;11.46;100.00;99798.03;4210404;28;20032;-81
2023/03/31 05:07:21;;;;;;;31.15;6.78;;;12.20;99.90;;;11.51;100.00;99806.19;4215084;28;20020;-80
2023/03/31 05:09:22;;;;;;;32.47;7.68;;;12.10;99.90;;;11.33;100.00;99805.75;4221473;28;20043;-80
2023/03/31 05:11:23;;;;;;;20.65;6.25;;;12.10;99.90;;;11.40;100.00;99822.53;4219088;28;20043;-80
2023/03/31 05:13:24;;;;;;;29.63;5.65;;;12.10;99.90;;;11.42;100.00;99818.69;4218732;28;20104;-80
2023/03/31 05:15:25;;;;;;;37.03;6.30;;;12.10;99.90;;;11.28;100.00;99802.88;4218984;28;20502;-80
2023/03/31 05:17:26;;;;;;;21.67;6.30;;;12.10;99.90;;;11.33;100.00;99838.28;4218732;28;20035;-81
2023/03/31 05:19:26;;;;;;;31.70;6.53;;;12.00;99.90;;;11.31;100.00;99827.09;4218923;28;20028;-80
2023/03/31 05:21:29;;;;;;;29.13;5.75;;;12.00;99.90;;;11.38;100.00;99835.88;4200988;28;20020;-80
2023/03/31 05:23:31;;;;;;;32.17;5.97;;;12.00;99.90;;;11.38;100.00;99837.75;4218802;28;20048;-80
2023/03/31 05:25:32;;;;;;;33.47;6.65;;;12.00;99.90;;;11.37;100.00;99839.56;4218758;28;20024;-80
2023/03/31 05:27:34;;;;;;;30.40;6.72;;;12.00;99.90;;;11.42;100.00;99828.44;4201057;28;20439;-80
2023/03/31 05:29:35;;;;;;;33.78;7.28;;;12.00;99.90;;;11.35;100.00;99824.91;4233295;28;20502;-79
2023/03/31 05:31:36;;;;;;;31.98;7.07;;;12.00;99.90;;;11.30;100.00;99843.09;4200843;28;20040;-79
2023/03/31 05:33:40;;;;;;;45.08;7.97;;;12.00;99.90;;;11.23;100.00;99829.78;4218799;28;20020;-79
2023/03/31 05:35:41;;;;;;;36.70;6.90;;;12.00;99.90;;;11.32;100.00;99852.47;4218752;28;20028;-80
2023/03/31 05:37:42;;;;;;;43.92;8.50;;;12.00;99.90;;;11.27;100.00;99838.19;4218720;28;20085;-80
2023/03/31 05:39:43;;;;;;;50.40;8.93;;;12.00;99.90;;;11.25;100.00;99856.03;4200893;28;20029;-80
2023/03/31 05:41:44;;;;;;;43.50;8.52;;;11.90;99.90;;;11.17;100.00;99840.28;4213206;28;20365;-80
2023/03/31 05:43:45;;;;;;;36.85;7.60;;;11.90;99.90;;;11.08;100.00;99824.53;4208635;28;20020;-80
2023/03/31 05:45:46;;;;;;;26.60;6.38;;;11.80;99.90;;;10.81;100.00;99851.50;4192744;28;20016;-80
2023/03/31 05:47:47;;;;;;;27.98;5.95;;;11.70;99.90;;;10.68;100.00;99861.03;4200664;28;20029;-79
2023/03/31 05:49:48;;;;;;;34.75;6.45;;;11.50;99.90;;;10.71;100.00;99865.97;4218490;28;20028;-80
2023/03/31 05:51:49;;;;;;;27.75;5.07;;;11.50;99.90;;;10.71;100.00;99858.03;4218394;28;20103;-79
2023/03/31 05:53:50;;;;;;;20.98;4.85;;;11.40;99.90;;;10.60;100.00;99859.31;4200541;28;20032;-80
2023/03/31 05:56:05;;;;;;;28.40;6.45;;;11.30;99.90;;;10.66;100.00;99847.22;4218562;28;20028;-79
2023/03/31 05:58:07;;;;;;;28.13;5.35;;;11.30;99.90;;;10.68;100.00;99851.31;4200716;28;20020;-80
2023/03/31 06:00:10;;;;;;;34.13;8.90;;;11.40;99.90;;;10.55;100.00;99856.34;4218306;28;20080;-80
2023/03/31 06:02:12;;;;;;;31.88;5.80;;;11.30;99.90;;;10.76;100.00;99861.78;4218503;28;20028;-79
2023/03/31 06:04:13;;;;;;;41.90;6.93;;;11.30;99.90;;;10.82;100.00;99876.06;4218249;28;20054;-80
2023/03/31 06:06:15;;;;;;;40.45;6.38;;;11.40;99.90;;;10.77;100.00;99844.97;4210872;28;20033;-80
2023/03/31 06:08:16;;;;;;;31.92;7.25;;;11.40;99.90;;;10.90;100.00;99882.09;4195924;28;20063;-80
2023/03/31 06:10:17;;;;;;;41.65;7.85;;;11.50;99.90;;;10.89;100.00;99869.91;4209195;28;20033;-80
2023/03/31 06:12:18;;;;;;;42.40;8.02;;;11.60;99.90;;;10.84;100.00;99856.41;4218351;28;20036;-80
2023/03/31 06:14:19;;;;;;;39.05;7.82;;;11.60;99.90;;;10.88;100.00;99884.09;4183324;28;20020;-80
2023/03/31 06:16:20;;;;;;;40.85;7.80;;;11.60;99.90;;;10.95;100.00;99863.94;4205452;28;20562;-79
2023/03/31 06:18:21;;;;;;;34.17;7.82;;;11.60;99.90;;;11.00;100.00;99871.28;4218233;28;20016;-79
2023/03/31 06:20:21;;;;;;;41.33;8.05;;;11.60;99.90;;;10.89;100.00;99880.47;4203218;28;20052;-79
2023/03/31 06:22:22;;;;;;;27.08;7.43;;;11.60;99.90;;;10.86;100.00;99865.00;4203814;28;20033;-79
2023/03/31 06:24:23;;;;;;;43.88;7.82;;;11.60;99.90;;;10.85;100.00;99844.88;4221477;28;20398;-79
2023/03/31 06:26:24;;;;;;;32.45;7.55;;;11.60;99.90;;;10.93;100.00;99825.53;4203794;28;20025;-80
2023/03/31 06:28:25;;;;;;;37.33;8.10;;;11.60;99.90;;;11.08;100.00;99826.34;4221393;28;20074;-80
2023/03/31 06:30:26;;;;;;;46.10;9.32;;;11.60;99.90;;;11.14;100.00;99872.31;4221438;28;20035;-79
2023/03/31 06:32:27;;;;;;;39.08;9.27;;;11.70;99.90;;;11.02;100.00;99885.16;4203687;28;20122;-80
2023/03/31 06:34:28;;;;;;;34.65;6.22;;;11.70;99.90;;;11.00;100.00;99887.13;4230675;28;20028;-79
2023/03/31 06:36:29;;;;;;;39.95;8.77;;;11.70;99.90;;;10.96;100.00;99881.38;4213946;28;20034;-79
2023/03/31 06:38:30;;;;;;;45.10;7.57;;;11.60;99.90;;;10.78;100.00;99883.50;4203389;28;20036;-80
2023/03/31 06:40:32;;;;;;;32.85;6.57;;;11.60;99.90;;;10.92;100.00;99874.84;4221696;28;20411;-80
2023/03/31 06:42:33;;;;;;;33.90;7.20;;;11.60;99.90;;;11.15;100.00;99889.78;4203445;28;20013;-79
2023/03/31 06:44:34;;;;;;;30.30;6.07;;;11.70;99.90;;;11.27;100.00;99880.41;4228599;28;20555;-80
2023/03/31 06:46:35;;;;;;;29.45;5.65;;;11.80;99.90;;;11.18;100.00;99889.41;4221226;28;20049;-78
2023/03/31 06:48:36;;;;;;;34.78;8.57;;;11.90;99.90;;;11.22;100.00;99904.72;4221078;28;20036;-78
2023/03/31 06:50:38;;;;;;;36.00;7.63;;;11.90;99.90;;;11.38;100.00;99901.13;4221284;28;20395;-79
2023/03/31 06:52:42;;;;;;;43.65;8.73;;;12.00;99.90;;;11.32;100.00;99888.63;4221131;28;20035;-79
2023/03/31 06:54:43;;;;;;;47.03;7.85;;;12.00;99.90;;;11.25;100.00;99896.44;4203027;28;20035;-79
2023/03/31 06:56:44;;;;;;;32.42;7.88;;;12.00;99.90;;;11.24;100.00;99904.53;4220422;28;20032;-79
2023/03/31 06:58:44;;;;;;;39.40;8.20;;;12.00;99.90;;;11.27;100.00;99905.00;4210008;28;20017;-79
2023/03/31 07:00:46;;;;;;;41.30;8.15;;;12.00;99.90;;;11.38;100.00;99893.97;4221092;28;20032;-79
2023/03/31 07:02:46;;;;;;;36.63;8.05;;;12.00;99.90;;;11.53;100.00;99915.94;4203094;28;20123;-79
2023/03/31 07:04:47;;;;;;;40.55;9.15;;;12.20;99.90;;;11.84;100.00;99923.72;4202739;28;20029;-79
2023/03/31 07:06:48;;;;;;;41.88;8.38;;;12.40;99.90;;;11.74;100.00;99912.59;4220898;28;20489;-79
2023/03/31 07:08:49;;;;;;;43.53;8.38;;;12.40;99.90;;;11.32;100.00;99907.13;4226680;28;20078;-79
2023/03/31 07:10:58;;;;;;;32.10;7.43;;;12.20;99.90;;;11.07;100.00;99914.44;4207440;28;20043;-80
2023/03/31 07:13:00;;;;;;;50.40;8.32;;;11.90;99.90;;;10.88;100.00;99921.03;4233040;28;20032;-79
2023/03/31 07:15:00;;;;;;;42.90;9.52;;;11.70;99.90;;;11.02;100.00;99932.66;4192506;28;20020;-80
2023/03/31 07:17:02;;;;;;;46.17;8.75;;;11.60;99.90;;;11.13;100.00;99940.13;4220891;28;20450;-79
2023/03/31 07:19:04;;;;;;;40.45;6.78;;;11.70;99.90;;;11.13;100.00;99940.13;4220779;28;20050;-84
2023/03/31 07:21:06;;;;;;;43.60;9.20;;;11.70;99.90;;;11.30;100.00;99935.50;4219323;28;20041;-83
2023/03/31 07:23:08;;;;;;;36.85;6.75;;;11.90;99.90;;;11.37;100.00;99939.06;4220740;28;20022;-84
2023/03/31 07:25:11;;;;;;;36.60;7.20;;;11.90;99.90;;;11.42;100.00;99955.19;4202713;28;20502;-84
2023/03/31 07:27:12;;;;;;;28.17;6.40;;;12.10;99.90;;;11.44;100.00;99929.44;4234783;28;20027;-86
2023/03/31 07:29:13;;;;;;;41.63;6.78;;;12.10;99.90;;;11.56;100.00;99935.88;4220567;28;20043;-80
2023/03/31 07:31:14;;;;;;;35.92;6.82;;;12.20;99.90;;;11.61;100.00;99944.09;4202257;28;20020;-77
2023/03/31 07:33:15;;;;;;;29.13;6.80;;;12.20;99.90;;;11.63;100.00;99937.63;4220512;28;20070;-76
2023/03/31 07:35:18;;;;;;;27.27;5.38;;;12.30;99.90;;;11.64;100.00;99944.56;4220618;28;20020;-76
2023/03/31 07:37:18;;;;;;;32.47;5.75;;;12.30;99.90;;;11.74;100.00;99939.00;4220308;28;20028;-77
2023/03/31 07:39:19;;;;;;;26.17;6.30;;;12.40;99.90;;;11.78;100.00;99952.69;4220516;28;20066;-76
2023/03/31 07:41:21;;;;;;;19.85;4.82;;;12.50;99.90;;;11.86;100.00;99963.97;4202556;28;20486;-78
2023/03/31 07:43:22;;;;;;;33.45;7.40;;;12.50;99.90;;;11.93;100.00;99954.31;4235234;28;20020;-77
2023/03/31 07:45:25;;;;;;;26.88;5.95;;;12.60;99.90;;;12.18;100.00;99954.84;4202310;28;20438;-78
2023/03/31 07:47:27;;;;;;;32.95;5.88;;;12.70;99.90;;;12.34;100.00;99953.78;4220327;28;20066;-77
2023/03/31 07:49:27;;;;;;;27.65;6.18;;;12.90;99.90;;;12.36;100.00;99960.53;4202199;28;20031;-77
2023/03/31 07:51:28;;;;;;;26.42;5.25;;;13.00;99.90;;;12.40;100.00;99951.22;4220146;28;20025;-78
2023/03/31 07:53:29;;;;;;;29.17;5.88;;;13.10;99.90;;;12.26;100.00;99943.31;4219750;28;20032;-78
2023/03/31 07:55:30;;;;;;;34.00;5.68;;;13.00;99.90;;;12.17;100.00;99954.00;4220109;28;20019;-78
2023/03/31 07:57:31;;;;;;;31.85;6.15;;;12.90;99.90;;;11.99;100.00;99958.88;4220115;28;20107;-78
2023/03/31 07:59:32;;;;;;;35.72;8.30;;;12.80;99.90;;;11.96;100.00;99971.63;4219856;28;20036;-77
2023/03/31 08:01:33;;;;;;;28.67;8.65;;;12.70;99.90;;;12.05;100.00;99962.59;4202085;28;20021;-78
2023/03/31 08:03:34;;;;;;;40.47;7.50;;;12.70;99.90;;;12.06;100.00;99965.06;4203524;28;20071;-77
2023/03/31 08:05:35;;;;;;;36.05;7.80;;;12.70;99.90;;;12.19;100.00;99973.16;4202038;28;20029;-77
2023/03/31 08:07:40;;;;;;;36.08;7.97;;;12.80;99.90;;;12.32;100.00;99967.19;4224578;28;20034;-78
2023/03/31 08:09:44;;;;;;;37.53;8.70;;;12.90;99.90;;;12.50;100.00;99950.91;4202541;28;20025;-78
2023/03/31 08:11:45;;;;;;;;;;;13.10;99.90;;;12.72;100.00;99958.66;4229358;28;20047;-78
2023/03/31 08:13:46;;;;;;;35.05;7.00;;;13.30;99.90;;;12.50;100.00;99969.44;4195046;28;19909;-77
2023/03/31 08:15:47;;;;;;;34.70;8.52;;;13.30;99.90;;;12.33;100.00;99970.66;4201855;28;20107;-77
2023/03/31 08:17:48;;;;;;;40.90;8.98;;;13.10;99.90;;;12.16;100.00;99986.72;4219558;28;20391;-77
2023/03/31 08:19:50;;;;;;;40.30;7.50;;;13.00;99.90;;;11.89;100.00;99984.75;4219969;28;20035;-78
2023/03/31 08:21:51;;;;;;;35.78;7.82;;;12.80;99.90;;;11.68;100.00;99970.63;4201924;28;20427;-77
2023/03/31 08:23:55;;;;;;;35.17;7.13;;;12.60;99.90;;;11.58;100.00;99992.00;4232402;28;20023;-77
2023/03/31 08:26:09;;;;;;;;;;;12.40;99.90;;;11.62;100.00;100002.00;4202166;28;20032;-77
2023/03/31 08:28:12;;;;;;;36.03;7.18;;;12.30;99.90;;;11.55;100.00;99982.63;4218252;28;19947;-78
2023/03/31 08:30:14;;;;;;;33.00;6.43;;;12.30;99.90;;;11.77;100.00;100001.25;4223009;28;20024;-78
2023/03/31 08:32:14;;;;;;;44.70;8.60;;;12.30;99.90;;;11.81;100.00;100005.16;4217673;28;20368;-78
2023/03/31 08:34:15;;;;;;;41.92;9.10;;;12.40;99.90;;;12.00;100.00;100012.56;4219443;28;20035;-78
2023/03/31 08:36:16;;;;;;;40.85;9.35;;;12.50;99.90;;;12.39;100.00;100023.66;4201583;28;20582;-79
2023/03/31 08:38:17;;;;;;;37.78;8.82;;;12.80;99.90;;;12.77;100.00;100003.09;4223716;28;20125;-78